Time;durP1;ratioP1;P1;durP2;ratioP2;P2;SDS_P1;SDS_P2;PMS_P1;PMS_P2;Temp;Humidity;BMP_temperature;BMP_pressure;BME280_temperature;BME280_humidity;BME280_pressure;Samples;Min_cycle;Max_cycle;Signal;HPM_P1;HPM_P2
2024/02/22 00:01:38;;;;;;;16.38;13.10;;;;;;;;;;5055184;28;20028;-85
2024/02/22 00:04:04;;;;;;;15.85;13.00;;;;;;;;;;5055527;28;20030;-83
2024/02/22 00:06:30;;;;;;;15.43;13.00;;;;;;;;;;5054111;28;20522;-83
2024/02/22 00:08:56;;;;;;;16.50;13.80;;;;;;;;;;5055088;28;20032;-86
2024/02/22 00:11:22;;;;;;;16.67;13.38;;;;;;;;;;5055877;28;20036;-87
2024/02/22 00:13:48;;;;;;;16.35;13.77;;;;;;;;;;5054202;28;20021;-88
2024/02/22 00:16:15;;;;;;;14.07;11.55;;;;;;;;;;5054973;28;20427;-87
2024/02/22 00:18:41;;;;;;;14.15;11.68;;;;;;;;;;5067558;28;20040;-85
2024/02/22 00:21:08;;;;;;;15.43;13.20;;;;;;;;;;5074431;28;20089;-89
2024/02/22 00:23:36;;;;;;;14.82;13.00;;;;;;;;;;5075283;28;20029;-90
2024/02/22 00:26:03;;;;;;;17.17;14.23;;;;;;;;;;5075765;28;20101;-90
2024/02/22 00:28:30;;;;;;;16.75;12.75;;;;;;;;;;5065963;28;20033;-89
2024/02/22 00:30:56;;;;;;;17.52;13.70;;;;;;;;;;5053609;28;20051;-87
2024/02/22 00:33:22;;;;;;;15.10;11.60;;;;;;;;;;5053327;28;20025;-87
2024/02/22 00:35:48;;;;;;;17.50;13.68;;;;;;;;;;5053515;28;20029;-85
2024/02/22 00:38:14;;;;;;;14.68;11.95;;;;;;;;;;5052760;28;20032;-83
2024/02/22 00:40:40;;;;;;;18.42;15.43;;;;;;;;;;5053469;28;20052;-85
2024/02/22 00:43:06;;;;;;;13.98;11.05;;;;;;;;;;5053351;28;20025;-85
2024/02/22 00:45:34;;;;;;;17.92;15.45;;;;;;;;;;5054109;28;20051;-91
2024/02/22 00:48:01;;;;;;;17.02;13.35;;;;;;;;;;5056509;28;20033;-91
2024/02/22 00:50:27;;;;;;;18.50;14.35;;;;;;;;;;5056064;28;20024;-91
2024/02/22 00:52:55;;;;;;;19.90;16.08;;;;;;;;;;5056408;28;20124;-88
2024/02/22 00:55:21;;;;;;;19.20;15.75;;;;;;;;;;5056676;28;20017;-92
2024/02/22 00:57:55;;;;;;;20.38;14.55;;;;;;;;;;5057632;28;20025;-91
2024/02/22 01:00:23;;;;;;;14.43;11.23;;;;;;;;;;5055688;28;20044;-87
2024/02/22 01:02:50;;;;;;;17.80;13.57;;;;;;;;;;5058968;28;20120;-86
2024/02/22 01:05:20;;;;;;;19.00;14.88;;;;;;;;;;5068643;28;20022;-90
2024/02/22 01:07:46;;;;;;;18.20;13.80;;;;;;;;;;5075744;28;20461;-88
2024/02/22 01:10:12;;;;;;;18.65;14.27;;;;;;;;;;5075564;28;20061;-88
2024/02/22 01:12:39;;;;;;;20.48;15.50;;;;;;;;;;5062125;28;20119;-89
2024/02/22 01:15:06;;;;;;;16.88;12.73;;;;;;;;;;5040319;28;20090;-87
2024/02/22 01:17:32;;;;;;;19.42;14.88;;;;;;;;;;5052464;28;20400;-88
2024/02/22 01:19:58;;;;;;;16.85;13.13;;;;;;;;;;5057295;28;20025;-85
2024/02/22 01:22:25;;;;;;;16.60;12.80;;;;;;;;;;5063942;28;20477;-89
2024/02/22 01:24:51;;;;;;;19.15;13.63;;;;;;;;;;5056136;28;20021;-84
2024/02/22 01:27:17;;;;;;;18.67;14.43;;;;;;;;;;5057624;28;20029;-86
2024/02/22 01:29:43;;;;;;;19.92;14.75;;;;;;;;;;5052410;28;20040;-86
2024/02/22 01:32:09;;;;;;;20.52;14.52;;;;;;;;;;5052478;28;20075;-86
2024/02/22 01:34:35;;;;;;;17.75;13.80;;;;;;;;;;5052974;28;20021;-86
2024/02/22 01:37:01;;;;;;;17.08;13.75;;;;;;;;;;5052878;28;20064;-86
2024/02/22 01:39:28;;;;;;;19.38;13.80;;;;;;;;;;5056481;28;20047;-88
2024/02/22 01:41:54;;;;;;;16.25;12.95;;;;;;;;;;5037587;28;20033;-89
2024/02/22 01:44:27;;;;;;;18.95;15.10;;;;;;;;;;5053977;28;20480;-85
2024/02/22 01:46:53;;;;;;;21.70;16.58;;;;;;;;;;5052382;28;20029;-89
2024/02/22 01:49:19;;;;;;;20.13;14.32;;;;;;;;;;5052434;28;20022;-87
2024/02/22 01:51:45;;;;;;;17.92;14.23;;;;;;;;;;5053548;28;20496;-88
2024/02/22 01:54:13;;;;;;;19.00;14.38;;;;;;;;;;5052872;28;20469;-86
2024/02/22 01:56:39;;;;;;;18.15;12.90;;;;;;;;;;5051950;28;20132;-87
2024/02/22 01:59:08;;;;;;;20.23;14.07;;;;;;;;;;5052945;28;20462;-88
2024/02/22 02:01:34;;;;;;;17.67;13.27;;;;;;;;;;5035684;28;20030;-85
2024/02/22 02:04:00;;;;;;;17.50;13.07;;;;;;;;;;5053698;28;20098;-84
2024/02/22 02:06:26;;;;;;;17.25;13.55;;;;;;;;;;5051590;28;20048;-86
2024/02/22 02:08:53;;;;;;;16.50;12.02;;;;;;;;;;5053802;28;20032;-88
2024/02/22 02:11:19;;;;;;;19.15;14.60;;;;;;;;;;5035976;28;20093;-88
2024/02/22 02:13:45;;;;;;;16.42;12.55;;;;;;;;;;5053997;28;20052;-86
2024/02/22 02:16:11;;;;;;;19.45;13.35;;;;;;;;;;5053035;28;20044;-88
2024/02/22 02:18:39;;;;;;;17.08;12.38;;;;;;;;;;5064221;28;20024;-87
2024/02/22 02:21:10;;;;;;;18.75;14.13;;;;;;;;;;5074550;28;20124;-88
2024/02/22 02:23:51;;;;;;;18.92;14.00;;;;;;;;;;5074588;28;20029;-89
2024/02/22 02:26:18;;;;;;;18.98;13.38;;;;;;;;;;5073439;28;20088;-88
2024/02/22 02:28:45;;;;;;;19.15;12.30;;;;;;;;;;5045841;28;20029;-88
2024/02/22 02:31:12;;;;;;;23.13;15.15;;;;;;;;;;5055502;28;20041;-88
2024/02/22 02:33:38;;;;;;;30.48;17.25;;;;;;;;;;5055667;28;20028;-89
2024/02/22 02:36:06;;;;;;;24.33;15.95;;;;;;;;;;5056084;28;20025;-87
2024/02/22 02:38:32;;;;;;;21.52;14.57;;;;;;;;;;5038750;28;20037;-88
2024/02/22 02:40:59;;;;;;;22.25;13.80;;;;;;;;;;5056380;28;20079;-88
2024/02/22 02:43:25;;;;;;;26.33;16.95;;;;;;;;;;5055825;28;20078;-86
2024/02/22 02:45:52;;;;;;;22.20;13.50;;;;;;;;;;5055677;28;20086;-90
2024/02/22 02:48:19;;;;;;;29.95;18.60;;;;;;;;;;5057455;28;20043;-91
2024/02/22 02:50:47;;;;;;;26.90;16.23;;;;;;;;;;5057529;28;20025;-92
2024/02/22 02:53:13;;;;;;;27.13;17.20;;;;;;;;;;5056970;28;20253;-89
2024/02/22 02:55:39;;;;;;;46.00;24.90;;;;;;;;;;5056289;28;20021;-89
2024/02/22 02:58:05;;;;;;;30.92;17.75;;;;;;;;;;5039058;28;20029;-85
2024/02/22 03:00:32;;;;;;;32.92;20.02;;;;;;;;;;5054663;28;20043;-84
2024/02/22 03:02:58;;;;;;;36.83;22.27;;;;;;;;;;5054804;28;20063;-87
2024/02/22 03:05:27;;;;;;;39.15;22.60;;;;;;;;;;5055055;28;20031;-86
2024/02/22 03:07:54;;;;;;;34.33;20.90;;;;;;;;;;5056754;28;20469;-86
2024/02/22 03:10:21;;;;;;;42.80;22.83;;;;;;;;;;5058733;28;20053;-87
2024/02/22 03:12:47;;;;;;;50.00;26.25;;;;;;;;;;5060966;28;20029;-86
2024/02/22 03:15:13;;;;;;;42.58;23.55;;;;;;;;;;5061515;28;20137;-83
2024/02/22 03:17:40;;;;;;;37.78;23.20;;;;;;;;;;5070823;28;20021;-82
2024/02/22 03:20:10;;;;;;;39.97;22.58;;;;;;;;;;5066836;28;20028;-82
2024/02/22 03:22:39;;;;;;;30.42;19.88;;;;;;;;;;5075560;28;20021;-93
2024/02/22 03:25:09;;;;;;;38.75;23.35;;;;;;;;;;5057939;28;20128;-88
2024/02/22 03:27:35;;;;;;;38.87;22.33;;;;;;;;;;5054786;28;20078;-86
2024/02/22 03:30:03;;;;;;;34.17;21.20;;;;;;;;;;5054819;28;20029;-85
2024/02/22 03:32:29;;;;;;;34.53;21.13;;;;;;;;;;5054593;28;20489;-88
2024/02/22 03:34:56;;;;;;;37.92;23.15;;;;;;;;;;5055776;28;20025;-90
2024/02/22 03:37:22;;;;;;;36.50;23.30;;;;;;;;;;5055828;28;20029;-94
2024/02/22 03:39:49;;;;;;;37.58;23.80;;;;;;;;;;5041954;28;20492;-93
2024/02/22 03:42:21;;;;;;;42.97;25.20;;;;;;;;;;5055747;28;20029;-90
2024/02/22 03:44:48;;;;;;;39.50;23.15;;;;;;;;;;5054907;28;20503;-89
2024/02/22 03:47:14;;;;;;;40.55;22.05;;;;;;;;;;5055060;28;20025;-91
2024/02/22 03:49:41;;;;;;;46.63;24.45;;;;;;;;;;5056058;28;20052;-89
2024/02/22 03:52:07;;;;;;;42.97;25.30;;;;;;;;;;5055360;28;20029;-91
2024/02/22 03:54:37;;;;;;;41.47;23.77;;;;;;;;;;5054265;28;20115;-89
2024/02/22 03:57:03;;;;;;;57.58;25.50;;;;;;;;;;5054173;28;20039;-88
2024/02/22 03:59:30;;;;;;;42.05;22.85;;;;;;;;;;5053767;28;20412;-88
2024/02/22 04:01:57;;;;;;;40.47;23.10;;;;;;;;;;5053845;28;20032;-89
2024/02/22 04:04:26;;;;;;;41.45;23.45;;;;;;;;;;5055905;28;20036;-88
2024/02/22 04:06:52;;;;;;;46.70;23.35;;;;;;;;;;5053625;28;20041;-90
2024/02/22 04:09:18;;;;;;;44.03;20.42;;;;;;;;;;5054202;28;20052;-90
2024/02/22 04:11:44;;;;;;;38.40;21.70;;;;;;;;;;5055762;28;20352;-91
2024/02/22 04:14:17;;;;;;;53.28;24.55;;;;;;;;;;5056177;28;20494;-92
2024/02/22 04:16:44;;;;;;;38.95;21.13;;;;;;;;;;5059067;28;20040;-95
2024/02/22 04:19:24;;;;;;;45.67;24.05;;;;;;;;;;5057396;28;20021;-93
2024/02/22 04:21:50;;;;;;;48.38;21.13;;;;;;;;;;5061754;28;20037;-87
2024/02/22 04:24:16;;;;;;;47.13;23.48;;;;;;;;;;5070750;28;20047;-80
2024/02/22 04:26:50;;;;;;;53.47;25.35;;;;;;;;;;5057371;28;20025;-85
2024/02/22 04:29:17;;;;;;;44.25;22.27;;;;;;;;;;5053754;28;20021;-88
2024/02/22 04:31:47;;;;;;;56.47;24.08;;;;;;;;;;5054251;28;20032;-89
2024/02/22 04:34:13;;;;;;;45.08;25.00;;;;;;;;;;5054338;28;20427;-91
2024/02/22 04:36:40;;;;;;;48.40;25.02;;;;;;;;;;5054795;28;20105;-90
2024/02/22 04:39:13;;;;;;;45.80;23.90;;;;;;;;;;5055168;28;20357;-90
2024/02/22 04:41:43;;;;;;;47.30;24.20;;;;;;;;;;5055951;28;20033;-95
2024/02/22 04:44:09;;;;;;;46.03;24.92;;;;;;;;;;5055296;28;20033;-89
2024/02/22 04:46:35;;;;;;;56.60;25.50;;;;;;;;;;5054464;28;20062;-90
2024/02/22 04:49:04;;;;;;;47.35;22.70;;;;;;;;;;5054934;28;20460;-91
2024/02/22 04:51:30;;;;;;;51.90;25.05;;;;;;;;;;5056030;28;20025;-85
2024/02/22 04:53:56;;;;;;;42.90;22.55;;;;;;;;;;5051954;28;20021;-86
2024/02/22 04:56:22;;;;;;;45.40;21.73;;;;;;;;;;5051596;28;20025;-84
2024/02/22 04:58:48;;;;;;;49.78;22.67;;;;;;;;;;5051484;28;20375;-83
2024/02/22 05:01:15;;;;;;;53.25;23.88;;;;;;;;;;5052068;28;20029;-84
2024/02/22 05:03:41;;;;;;;44.47;22.50;;;;;;;;;;5052912;28;20075;-82
2024/02/22 05:06:07;;;;;;;43.83;19.67;;;;;;;;;;5051797;28;20029;-84
2024/02/22 05:08:33;;;;;;;42.40;20.20;;;;;;;;;;5052462;28;20254;-84
2024/02/22 05:10:59;;;;;;;46.10;20.70;;;;;;;;;;5052690;28;20069;-81
2024/02/22 05:13:25;;;;;;;39.85;19.75;;;;;;;;;;5050876;28;20495;-82
2024/02/22 05:15:51;;;;;;;43.90;19.35;;;;;;;;;;5052012;28;20028;-82
2024/02/22 05:18:17;;;;;;;45.08;20.08;;;;;;;;;;5051163;28;20029;-82
2024/02/22 05:20:43;;;;;;;41.83;16.60;;;;;;;;;;5050912;28;20075;-82
2024/02/22 05:23:10;;;;;;;37.13;15.63;;;;;;;;;;5052052;28;20051;-84
2024/02/22 05:25:36;;;;;;;43.92;16.20;;;;;;;;;;5052270;28;20483;-83
2024/02/22 05:28:05;;;;;;;31.90;15.55;;;;;;;;;;5053676;28;20032;-83
2024/02/22 05:30:31;;;;;;;42.00;16.02;;;;;;;;;;5062645;28;20029;-85
2024/02/22 05:32:57;;;;;;;34.70;13.82;;;;;;;;;;5062778;28;20025;-83
2024/02/22 05:35:24;;;;;;;34.88;12.82;;;;;;;;;;5061458;28;20026;-86
2024/02/22 05:37:50;;;;;;;29.48;12.38;;;;;;;;;;5051452;28;20035;-87
2024/02/22 05:40:16;;;;;;;29.15;12.05;;;;;;;;;;5051228;28;20035;-86
2024/02/22 05:42:43;;;;;;;36.90;12.60;;;;;;;;;;5050791;28;20226;-84
2024/02/22 05:45:09;;;;;;;28.35;10.77;;;;;;;;;;5050676;28;20376;-84
2024/02/22 05:47:35;;;;;;;38.92;11.40;;;;;;;;;;5050627;28;20120;-84
2024/02/22 05:50:02;;;;;;;35.42;10.32;;;;;;;;;;5051874;28;20069;-84
2024/02/22 05:52:29;;;;;;;29.35;10.07;;;;;;;;;;5050721;28;20021;-83
2024/02/22 05:54:55;;;;;;;38.78;11.20;;;;;;;;;;5053867;28;20079;-83
2024/02/22 05:57:21;;;;;;;42.45;10.60;;;;;;;;;;5055908;28;20032;-85
2024/02/22 05:59:47;;;;;;;35.60;10.45;;;;;;;;;;5054503;28;20034;-86
2024/02/22 06:02:14;;;;;;;34.67;9.38;;;;;;;;;;5055887;28;20025;-88
2024/02/22 06:04:40;;;;;;;31.33;10.40;;;;;;;;;;5054588;28;20021;-87
2024/02/22 06:07:06;;;;;;;33.00;9.05;;;;;;;;;;5054620;28;20031;-88
2024/02/22 06:09:33;;;;;;;37.65;10.18;;;;;;;;;;5055285;28;20049;-86
2024/02/22 06:11:59;;;;;;;37.15;11.20;;;;;;;;;;5056059;28;20575;-83
2024/02/22 06:14:25;;;;;;;41.25;11.38;;;;;;;;;;5054778;28;20091;-85
2024/02/22 06:16:51;;;;;;;28.52;11.00;;;;;;;;;;5055807;28;20370;-80
2024/02/22 06:19:17;;;;;;;41.78;14.10;;;;;;;;;;5059907;28;20036;-82
2024/02/22 06:21:43;;;;;;;39.20;14.93;;;;;;;;;;5057928;28;20029;-82
2024/02/22 06:24:09;;;;;;;40.58;15.45;;;;;;;;;;5056184;28;20048;-80
2024/02/22 06:26:37;;;;;;;47.30;17.58;;;;;;;;;;5054642;28;20031;-86
2024/02/22 06:29:03;;;;;;;41.13;18.83;;;;;;;;;;5055108;28;20021;-83
2024/02/22 06:31:32;;;;;;;43.03;20.30;;;;;;;;;;5054920;28;20492;-83
2024/02/22 06:33:58;;;;;;;42.17;21.02;;;;;;;;;;5053525;28;20025;-84
2024/02/22 06:36:24;;;;;;;41.05;19.40;;;;;;;;;;5053698;28;20098;-82
2024/02/22 06:38:50;;;;;;;34.40;19.75;;;;;;;;;;5053416;28;20051;-82
2024/02/22 06:41:18;;;;;;;41.53;19.70;;;;;;;;;;5053794;28;20029;-84
2024/02/22 06:43:44;;;;;;;33.45;15.88;;;;;;;;;;5053787;28;20095;-85
2024/02/22 06:46:11;;;;;;;28.88;14.63;;;;;;;;;;5053876;28;20115;-85
2024/02/22 06:48:37;;;;;;;40.22;18.52;;;;;;;;;;5053605;28;20017;-84
2024/02/22 06:51:03;;;;;;;35.25;17.90;;;;;;;;;;5053529;28;20025;-85
2024/02/22 06:53:29;;;;;;;30.08;15.75;;;;;;;;;;5053906;28;20040;-84
2024/02/22 06:55:55;;;;;;;30.75;15.68;;;;;;;;;;5053692;28;20028;-85
2024/02/22 06:58:21;;;;;;;40.92;17.95;;;;;;;;;;5053814;28;20021;-83
2024/02/22 07:00:47;;;;;;;42.20;18.08;;;;;;;;;;5053337;28;20029;-84
2024/02/22 07:03:13;;;;;;;40.30;18.58;;;;;;;;;;5053313;28;20036;-85
2024/02/22 07:05:39;;;;;;;31.33;15.85;;;;;;;;;;5052787;28;20021;-85
2024/02/22 07:08:05;;;;;;;39.97;18.58;;;;;;;;;;5053116;28;20056;-85
2024/02/22 07:10:32;;;;;;;35.42;17.73;;;;;;;;;;5052784;28;20060;-85
2024/02/22 07:12:58;;;;;;;37.78;18.27;;;;;;;;;;5053038;28;20057;-84
2024/02/22 07:15:24;;;;;;;37.08;16.27;;;;;;;;;;5053191;28;20029;-85
2024/02/22 07:17:50;;;;;;;32.55;15.52;;;;;;;;;;5052925;28;20028;-84
2024/02/22 07:20:16;;;;;;;35.97;15.85;;;;;;;;;;5053096;28;20082;-85
2024/02/22 07:22:44;;;;;;;33.55;16.48;;;;;;;;;;5053717;28;20021;-84
2024/02/22 07:25:13;;;;;;;33.88;14.27;;;;;;;;;;5053215;28;20114;-85
2024/02/22 07:27:42;;;;;;;29.52;11.45;;;;;;;;;;5052782;28;20411;-84
2024/02/22 07:30:09;;;;;;;28.95;13.45;;;;;;;;;;5052777;28;20032;-85
2024/02/22 07:32:35;;;;;;;23.75;10.45;;;;;;;;;;5052680;28;20025;-84
2024/02/22 07:35:02;;;;;;;20.85;13.05;;;;;;;;;;5053753;28;20029;-85
2024/02/22 07:37:28;;;;;;;29.02;12.63;;;;;;;;;;5052899;28;20025;-85
2024/02/22 07:39:55;;;;;;;21.02;10.80;;;;;;;;;;5053384;28;20040;-85
2024/02/22 07:42:21;;;;;;;27.58;13.95;;;;;;;;;;5055239;28;20021;-82
2024/02/22 07:44:47;;;;;;;29.13;14.90;;;;;;;;;;5061941;28;20032;-82
2024/02/22 07:47:13;;;;;;;24.98;14.55;;;;;;;;;;5059988;28;20025;-82
2024/02/22 07:49:39;;;;;;;24.80;14.82;;;;;;;;;;5057943;28;20068;-84
2024/02/22 07:52:06;;;;;;;32.35;16.25;;;;;;;;;;5052165;28;20033;-85
2024/02/22 07:54:32;;;;;;;18.83;14.02;;;;;;;;;;5053532;28;20104;-86
2024/02/22 07:56:58;;;;;;;25.10;14.07;;;;;;;;;;5051801;28;20070;-84
2024/02/22 07:59:24;;;;;;;28.80;15.02;;;;;;;;;;5052595;28;20033;-86
2024/02/22 08:01:50;;;;;;;26.80;14.70;;;;;;;;;;5052333;28;20083;-87
2024/02/22 08:04:16;;;;;;;23.40;14.73;;;;;;;;;;5052251;28;20025;-86
2024/02/22 08:06:43;;;;;;;28.95;16.63;;;;;;;;;;5052213;28;20035;-86
2024/02/22 08:09:09;;;;;;;27.70;16.40;;;;;;;;;;5052239;28;20025;-87
2024/02/22 08:11:37;;;;;;;27.42;17.23;;;;;;;;;;5052452;28;20040;-86
2024/02/22 08:14:03;;;;;;;25.58;18.27;;;;;;;;;;5051917;28;20112;-87
2024/02/22 08:16:29;;;;;;;26.98;16.05;;;;;;;;;;5051191;28;20067;-86
2024/02/22 08:18:55;;;;;;;26.38;15.48;;;;;;;;;;5052169;28;20071;-86
2024/02/22 08:21:22;;;;;;;19.23;13.85;;;;;;;;;;5053238;28;20033;-86
2024/02/22 08:23:51;;;;;;;21.92;15.13;;;;;;;;;;5059007;28;20021;-86
2024/02/22 08:26:18;;;;;;;23.17;15.25;;;;;;;;;;5059997;28;20025;-86
2024/02/22 08:28:44;;;;;;;22.08;13.07;;;;;;;;;;5057721;28;20028;-86
2024/02/22 08:31:11;;;;;;;20.02;14.18;;;;;;;;;;5053295;28;20041;-86
2024/02/22 08:33:37;;;;;;;19.95;14.18;;;;;;;;;;5053005;28;20129;-86
2024/02/22 08:36:03;;;;;;;21.80;14.32;;;;;;;;;;5051412;28;20063;-87
2024/02/22 08:38:29;;;;;;;16.90;12.18;;;;;;;;;;5051588;28;20032;-86
2024/02/22 08:40:55;;;;;;;16.80;12.45;;;;;;;;;;5051984;28;20025;-87
2024/02/22 08:43:21;;;;;;;16.63;12.68;;;;;;;;;;5054218;28;20028;-87
2024/02/22 08:45:48;;;;;;;16.05;11.10;;;;;;;;;;5052379;28;20021;-84
2024/02/22 08:48:17;;;;;;;13.15;10.27;;;;;;;;;;5051518;28;20025;-84
2024/02/22 08:50:43;;;;;;;16.90;11.45;;;;;;;;;;5051352;28;20044;-84
2024/02/22 08:53:10;;;;;;;14.82;10.55;;;;;;;;;;5051339;28;20465;-84
2024/02/22 08:55:36;;;;;;;10.98;8.32;;;;;;;;;;5051331;28;20029;-84
2024/02/22 08:58:02;;;;;;;12.63;9.55;;;;;;;;;;5050729;28;20036;-85
2024/02/22 09:00:28;;;;;;;12.55;7.75;;;;;;;;;;5051122;28;20029;-85
2024/02/22 09:02:54;;;;;;;15.23;9.40;;;;;;;;;;5050632;28;20036;-84
2024/02/22 09:05:20;;;;;;;11.20;7.40;;;;;;;;;;5051124;28;20086;-84
2024/02/22 09:07:50;;;;;;;11.48;7.47;;;;;;;;;;5050666;28;20392;-84
2024/02/22 09:10:16;;;;;;;11.57;7.85;;;;;;;;;;5050760;28;20090;-83
2024/02/22 09:12:43;;;;;;;10.85;7.50;;;;;;;;;;5050925;28;20040;-83
2024/02/22 09:15:10;;;;;;;7.93;5.65;;;;;;;;;;5050886;28;20098;-83
2024/02/22 09:17:36;;;;;;;10.55;7.93;;;;;;;;;;5050900;28;20083;-84
2024/02/22 09:20:04;;;;;;;11.77;7.53;;;;;;;;;;5051758;28;20021;-84
2024/02/22 09:22:30;;;;;;;10.57;8.02;;;;;;;;;;5051044;28;20021;-84
2024/02/22 09:24:56;;;;;;;9.95;7.40;;;;;;;;;;5051003;28;20380;-84
2024/02/22 09:27:22;;;;;;;10.65;7.25;;;;;;;;;;5051913;28;20025;-84
2024/02/22 09:29:48;;;;;;;8.88;6.00;;;;;;;;;;5054799;28;20083;-84
2024/02/22 09:32:14;;;;;;;10.02;7.80;;;;;;;;;;5055175;28;20017;-84
2024/02/22 09:34:40;;;;;;;8.68;7.07;;;;;;;;;;5055210;28;20021;-85
2024/02/22 09:37:06;;;;;;;9.23;6.20;;;;;;;;;;5054805;28;20078;-83
2024/02/22 09:39:33;;;;;;;6.95;5.30;;;;;;;;;;5054817;28;20094;-84
2024/02/22 09:42:00;;;;;;;7.30;4.75;;;;;;;;;;5054334;28;20071;-83
2024/02/22 09:44:28;;;;;;;9.07;6.72;;;;;;;;;;5054923;28;20025;-83
2024/02/22 09:46:54;;;;;;;9.07;6.40;;;;;;;;;;5055101;28;20110;-84
2024/02/22 09:49:21;;;;;;;10.75;8.45;;;;;;;;;;5054836;28;20036;-83
2024/02/22 09:51:49;;;;;;;10.38;8.77;;;;;;;;;;5054303;28;20037;-83
2024/02/22 09:54:15;;;;;;;8.00;6.10;;;;;;;;;;5055257;28;20025;-83
2024/02/22 09:56:43;;;;;;;9.18;6.72;;;;;;;;;;5056602;28;20025;-82
2024/02/22 09:59:11;;;;;;;8.07;6.93;;;;;;;;;;5056571;28;20021;-83
2024/02/22 10:01:38;;;;;;;7.53;5.90;;;;;;;;;;5055787;28;20476;-82
2024/02/22 10:04:16;;;;;;;6.43;4.57;;;;;;;;;;5054871;28;20021;-84
2024/02/22 10:06:42;;;;;;;5.22;3.85;;;;;;;;;;5054346;28;20036;-84
2024/02/22 10:09:08;;;;;;;5.60;3.90;;;;;;;;;;5053524;28;20033;-84
2024/02/22 10:11:37;;;;;;;5.75;4.40;;;;;;;;;;5055291;28;20040;-84
2024/02/22 10:14:03;;;;;;;6.07;3.80;;;;;;;;;;5053786;28;20032;-84
2024/02/22 10:16:29;;;;;;;5.70;4.53;;;;;;;;;;5055148;28;20061;-83
2024/02/22 10:19:02;;;;;;;7.18;4.88;;;;;;;;;;5054024;28;20116;-84
2024/02/22 10:21:31;;;;;;;5.97;4.65;;;;;;;;;;5054188;28;20381;-83
2024/02/22 10:23:58;;;;;;;5.30;4.28;;;;;;;;;;5054368;28;20055;-84
2024/02/22 10:26:27;;;;;;;4.45;3.05;;;;;;;;;;5054842;28;20058;-84
2024/02/22 10:28:58;;;;;;;7.13;4.28;;;;;;;;;;5054684;28;20481;-84
2024/02/22 10:31:25;;;;;;;5.68;4.07;;;;;;;;;;5054502;28;20033;-84
2024/02/22 10:33:52;;;;;;;6.25;3.97;;;;;;;;;;5054424;28;20483;-83
2024/02/22 10:36:21;;;;;;;5.15;4.03;;;;;;;;;;5064299;28;20029;-82
2024/02/22 10:38:47;;;;;;;5.25;4.40;;;;;;;;;;5055370;28;20033;-81
2024/02/22 10:41:14;;;;;;;8.40;4.65;;;;;;;;;;5055545;28;20033;-83
2024/02/22 10:43:41;;;;;;;6.72;4.05;;;;;;;;;;5053562;28;20025;-83
2024/02/22 10:46:09;;;;;;;5.57;3.75;;;;;;;;;;5053325;28;20021;-83
2024/02/22 10:48:36;;;;;;;6.22;3.88;;;;;;;;;;5053513;28;20128;-83
2024/02/22 10:51:08;;;;;;;5.63;4.00;;;;;;;;;;5053320;28;20520;-84
2024/02/22 10:53:40;;;;;;;4.00;2.63;;;;;;;;;;5053455;28;20461;-84
2024/02/22 10:56:07;;;;;;;5.45;3.38;;;;;;;;;;5052886;28;20047;-85
2024/02/22 10:58:36;;;;;;;4.32;3.15;;;;;;;;;;5053534;28;20020;-85
2024/02/22 11:01:05;;;;;;;6.03;4.93;;;;;;;;;;5053171;28;20064;-84
2024/02/22 11:03:31;;;;;;;7.22;4.25;;;;;;;;;;5054703;28;20090;-84
2024/02/22 11:05:58;;;;;;;4.22;2.85;;;;;;;;;;5053134;28;20036;-84
2024/02/22 11:08:29;;;;;;;5.97;4.70;;;;;;;;;;5053281;28;20358;-84
2024/02/22 11:11:10;;;;;;;6.88;4.50;;;;;;;;;;5052581;28;20485;-84
2024/02/22 11:13:36;;;;;;;7.50;5.45;;;;;;;;;;5053020;28;20021;-84
2024/02/22 11:16:12;;;;;;;7.78;6.25;;;;;;;;;;5054960;28;20033;-84
2024/02/22 11:18:39;;;;;;;4.70;3.40;;;;;;;;;;5053069;28;20032;-84
2024/02/22 11:21:11;;;;;;;6.18;4.13;;;;;;;;;;5052670;28;20087;-84
2024/02/22 11:23:37;;;;;;;6.20;4.63;;;;;;;;;;5054798;28;20023;-84
2024/02/22 11:26:03;;;;;;;5.85;3.42;;;;;;;;;;5052421;28;20125;-84
2024/02/22 11:28:29;;;;;;;6.30;4.20;;;;;;;;;;5052744;28;20043;-84
2024/02/22 11:30:57;;;;;;;4.38;3.58;;;;;;;;;;5052462;28;20461;-84
2024/02/22 11:33:23;;;;;;;6.80;5.07;;;;;;;;;;5052793;28;20114;-84
2024/02/22 11:35:55;;;;;;;5.85;4.68;;;;;;;;;;5052902;28;20083;-84
2024/02/22 11:38:22;;;;;;;5.20;4.70;;;;;;;;;;5052671;28;20025;-85
2024/02/22 11:40:48;;;;;;;5.57;4.30;;;;;;;;;;5052617;28;20044;-84
2024/02/22 11:43:14;;;;;;;5.22;3.92;;;;;;;;;;5052141;28;20032;-84
2024/02/22 11:45:41;;;;;;;5.88;4.03;;;;;;;;;;5052540;28;20457;-85
2024/02/22 11:48:07;;;;;;;4.47;3.25;;;;;;;;;;5053880;28;20473;-84
2024/02/22 11:50:33;;;;;;;6.07;3.70;;;;;;;;;;5053212;28;20036;-85
2024/02/22 11:53:02;;;;;;;5.80;3.05;;;;;;;;;;5052399;28;20063;-84
2024/02/22 11:55:28;;;;;;;5.82;4.05;;;;;;;;;;5052452;28;20017;-85
2024/02/22 11:57:54;;;;;;;6.03;3.40;;;;;;;;;;5052249;28;20431;-86
2024/02/22 12:00:20;;;;;;;4.35;3.38;;;;;;;;;;5053803;28;20021;-85
2024/02/22 12:02:47;;;;;;;4.43;3.20;;;;;;;;;;5052701;28;20029;-84
2024/02/22 12:05:13;;;;;;;4.35;3.15;;;;;;;;;;5052398;28;20037;-85
2024/02/22 12:07:39;;;;;;;7.82;5.72;;;;;;;;;;5054498;28;20148;-87
2024/02/22 12:10:06;;;;;;;4.38;2.65;;;;;;;;;;5063792;28;20040;-84
2024/02/22 12:12:32;;;;;;;7.85;4.55;;;;;;;;;;5074353;28;20029;-83
2024/02/22 12:14:59;;;;;;;5.53;4.05;;;;;;;;;;5072172;28;20112;-87
2024/02/22 12:17:26;;;;;;;7.07;4.65;;;;;;;;;;5062100;28;20123;-87
2024/02/22 12:19:55;;;;;;;6.75;2.70;;;;;;;;;;5057758;28;20112;-87
2024/02/22 12:22:22;;;;;;;7.30;4.45;;;;;;;;;;5053616;28;20025;-85
2024/02/22 12:24:51;;;;;;;5.43;3.35;;;;;;;;;;5053177;28;20021;-83
2024/02/22 12:27:17;;;;;;;8.02;5.35;;;;;;;;;;5054080;28;20112;-85
2024/02/22 12:29:43;;;;;;;8.80;4.95;;;;;;;;;;5055180;28;20025;-83
2024/02/22 12:32:09;;;;;;;5.43;3.17;;;;;;;;;;5053566;28;20120;-84
2024/02/22 12:34:38;;;;;;;6.50;3.58;;;;;;;;;;5058912;28;20021;-85
2024/02/22 12:37:05;;;;;;;6.73;6.03;;;;;;;;;;5058688;28;20025;-85
2024/02/22 12:39:31;;;;;;;6.90;6.18;;;;;;;;;;5051320;28;20456;-85
2024/02/22 12:41:57;;;;;;;7.72;4.75;;;;;;;;;;5051460;28;20092;-85
2024/02/22 12:44:23;;;;;;;8.55;5.95;;;;;;;;;;5051767;28;20128;-85
2024/02/22 12:46:50;;;;;;;5.82;4.45;;;;;;;;;;5051331;28;20028;-84
2024/02/22 12:49:16;;;;;;;6.40;4.68;;;;;;;;;;5051364;28;20579;-85
2024/02/22 12:51:48;;;;;;;5.90;4.57;;;;;;;;;;5051361;28;20060;-86
2024/02/22 12:54:24;;;;;;;5.32;4.07;;;;;;;;;;5052385;28;20071;-86
2024/02/22 12:56:51;;;;;;;7.07;5.30;;;;;;;;;;5051244;28;20029;-86
2024/02/22 12:59:17;;;;;;;6.97;5.43;;;;;;;;;;5051388;28;20029;-87
2024/02/22 13:01:46;;;;;;;5.47;3.67;;;;;;;;;;5051121;28;20033;-86
2024/02/22 13:04:12;;;;;;;6.68;4.45;;;;;;;;;;5051117;28;20472;-87
2024/02/22 13:06:38;;;;;;;6.88;5.80;;;;;;;;;;5051079;28;20373;-87
2024/02/22 13:09:07;;;;;;;5.13;3.50;;;;;;;;;;5050924;28;20028;-87
2024/02/22 13:11:33;;;;;;;4.78;3.97;;;;;;;;;;5050887;28;20048;-85
2024/02/22 13:13:59;;;;;;;4.55;3.80;;;;;;;;;;5050966;28;20120;-85
2024/02/22 13:16:28;;;;;;;7.63;5.45;;;;;;;;;;5052501;28;20033;-85
2024/02/22 13:18:55;;;;;;;6.20;4.38;;;;;;;;;;5051213;28;20025;-87
2024/02/22 13:21:21;;;;;;;4.22;2.92;;;;;;;;;;5050778;28;20465;-87
2024/02/22 13:23:47;;;;;;;4.80;3.55;;;;;;;;;;5051286;28;20131;-87
2024/02/22 13:26:13;;;;;;;4.15;3.13;;;;;;;;;;5050940;28;20661;-86
2024/02/22 13:28:39;;;;;;;3.92;2.85;;;;;;;;;;5051082;28;20029;-86
2024/02/22 13:31:05;;;;;;;6.63;3.65;;;;;;;;;;5050980;28;20113;-86
2024/02/22 13:33:31;;;;;;;5.05;3.50;;;;;;;;;;5050942;28;20036;-87
2024/02/22 13:35:57;;;;;;;6.07;3.60;;;;;;;;;;5051460;28;20024;-85
2024/02/22 13:38:24;;;;;;;5.85;3.88;;;;;;;;;;5051224;28;20117;-86
2024/02/22 13:40:50;;;;;;;2.78;2.03;;;;;;;;;;5051453;28;20029;-86
2024/02/22 13:43:16;;;;;;;3.13;1.70;;;;;;;;;;5050943;28;20108;-87
2024/02/22 13:45:44;;;;;;;5.30;2.22;;;;;;;;;;5052450;28;20025;-86
2024/02/22 13:48:14;;;;;;;3.67;2.13;;;;;;;;;;5050978;28;20021;-86
2024/02/22 13:50:40;;;;;;;5.10;2.63;;;;;;;;;;5050954;28;20112;-86
2024/02/22 13:53:07;;;;;;;4.80;2.78;;;;;;;;;;5050926;28;20064;-87
2024/02/22 13:55:33;;;;;;;4.47;2.83;;;;;;;;;;5051094;28;20052;-85
2024/02/22 13:57:59;;;;;;;3.33;1.40;;;;;;;;;;5051298;28;20021;-86
2024/02/22 14:00:26;;;;;;;2.47;1.20;;;;;;;;;;5051194;28;20108;-86
2024/02/22 14:02:52;;;;;;;4.05;2.90;;;;;;;;;;5050965;28;20028;-85
2024/02/22 14:05:19;;;;;;;4.65;2.50;;;;;;;;;;5050787;28;20025;-85
2024/02/22 14:07:51;;;;;;;6.95;3.83;;;;;;;;;;5050826;28;20035;-86
2024/02/22 14:10:17;;;;;;;5.65;2.95;;;;;;;;;;5050269;28;20390;-87
2024/02/22 14:12:43;;;;;;;4.57;2.72;;;;;;;;;;5051012;28;20465;-87
2024/02/22 14:15:09;;;;;;;5.18;2.97;;;;;;;;;;5052753;28;20389;-86
2024/02/22 14:17:35;;;;;;;4.35;2.92;;;;;;;;;;5056051;28;20020;-84
2024/02/22 14:20:02;;;;;;;3.90;2.30;;;;;;;;;;5056675;28;20029;-84
2024/02/22 14:22:28;;;;;;;4.07;2.30;;;;;;;;;;5065049;28;20093;-85
2024/02/22 14:24:54;;;;;;;4.13;3.08;;;;;;;;;;5078490;28;20016;-82